Redmond, Oregon
Current Conditions -  °F | °C
As of 3:56 PM on Sunday 25 Jan 2015 (Local Time) from KRDM Reporting Station
Clear Clear  
Wind Chill: 68°   Ceiling: Unl
Heat Index: 68°   Visibility: 10mi
Dew Point: 40°   Wind: 0mph
Humidity: 36%   Direction: NA
Pressure: 30.14"   Gusts: NA
Location:  44.27°N, 121.17°W
Report Text: KRDM 252356Z 00000KT 10SM CLR 20/04 A3014 RMK AO2 SLP198 T02000044 10206 20117 56021
Loading
Personal Weather Stations






























Interactive Weather Map New forecast layout! Learn more

10-Day Weather Forecast

Advertisements
Track Severe Weather on mobile